createdAt,value
2022-09-23T00:00:46.234Z,0.00
2022-09-23T00:01:46.304Z,0.00
2022-09-23T00:02:46.265Z,0.00
2022-09-23T00:03:46.197Z,0.00
2022-09-23T00:04:46.182Z,0.00
2022-09-23T00:05:46.172Z,0.00
2022-09-23T00:06:46.178Z,0.00
2022-09-23T00:07:46.142Z,0.00
2022-09-23T00:14:30.944Z,0.00
2022-09-23T00:15:30.902Z,0.00
2022-09-23T00:16:30.945Z,0.00
2022-09-23T00:17:30.872Z,0.00
2022-09-23T00:18:30.882Z,0.00
2022-09-23T00:19:30.841Z,0.00
2022-09-23T00:20:30.832Z,0.00
2022-09-23T00:21:30.843Z,0.00
2022-09-23T00:22:30.819Z,0.00
2022-09-23T00:23:30.790Z,0.00
2022-09-23T00:24:30.792Z,0.00
2022-09-23T00:25:30.770Z,0.00
2022-09-23T00:26:30.749Z,0.00
2022-09-23T00:27:30.761Z,0.00
2022-09-23T00:28:30.740Z,0.00
2022-09-23T00:29:30.722Z,0.00
2022-09-23T00:30:30.739Z,0.00
2022-09-23T00:31:30.706Z,0.00
2022-09-23T00:32:30.701Z,0.00
2022-09-23T00:33:30.663Z,0.00
2022-09-23T00:34:30.638Z,0.00
2022-09-23T00:35:30.615Z,0.00
2022-09-23T00:36:30.612Z,0.00
2022-09-23T00:37:30.617Z,0.00
2022-09-23T00:38:30.585Z,0.00
2022-09-23T00:39:30.576Z,0.00
2022-09-23T00:40:30.597Z,0.00
2022-09-23T00:41:30.543Z,0.00
2022-09-23T00:42:30.555Z,0.00
2022-09-23T00:43:30.524Z,0.00
2022-09-23T00:44:30.512Z,0.00
2022-09-23T00:45:30.491Z,0.00
2022-09-23T00:46:30.550Z,0.00
2022-09-23T00:47:30.483Z,0.00
2022-09-23T00:48:30.497Z,0.00
2022-09-23T00:49:30.433Z,0.00
2022-09-23T00:50:30.429Z,0.00
2022-09-23T00:51:30.412Z,0.00
2022-09-23T00:52:30.401Z,0.00
2022-09-23T00:53:30.399Z,0.00
2022-09-23T00:54:30.372Z,0.00
2022-09-23T00:55:30.360Z,0.00
2022-09-23T00:56:30.350Z,0.00
2022-09-23T00:57:30.330Z,0.00
2022-09-23T00:58:30.342Z,0.00
2022-09-23T00:59:30.309Z,0.00
2022-09-23T01:00:30.290Z,0.00
2022-09-23T01:01:30.336Z,0.00
2022-09-23T01:02:30.459Z,0.00
2022-09-23T01:03:30.276Z,0.00
2022-09-23T01:04:30.248Z,0.00
2022-09-23T01:05:30.229Z,0.00
2022-09-23T01:06:30.219Z,0.00
2022-09-23T01:07:30.198Z,0.00
2022-09-23T01:08:30.200Z,0.00
2022-09-23T01:09:30.199Z,0.00
2022-09-23T01:10:30.168Z,0.00
2022-09-23T01:11:30.167Z,0.00
2022-09-23T01:12:30.148Z,0.00
2022-09-23T01:13:30.127Z,0.00
2022-09-23T01:14:30.139Z,0.00
2022-09-23T01:15:30.106Z,0.00
2022-09-23T01:16:30.134Z,0.00
2022-09-23T01:17:30.068Z,0.00
2022-09-23T01:18:30.068Z,0.00
2022-09-23T01:19:30.066Z,0.00
2022-09-23T01:20:30.047Z,0.00
2022-09-23T01:21:30.017Z,0.00
2022-09-23T01:22:30.016Z,0.00
2022-09-23T01:23:29.997Z,0.00
2022-09-23T01:24:29.985Z,0.00
2022-09-23T01:25:29.987Z,0.00
2022-09-23T01:26:29.966Z,0.00
2022-09-23T01:27:29.944Z,0.00
2022-09-23T01:28:29.935Z,0.00
2022-09-23T01:29:29.929Z,0.00
2022-09-23T01:30:29.951Z,0.00
2022-09-23T01:31:29.894Z,0.00
2022-09-23T01:32:29.887Z,0.00
2022-09-23T01:33:29.863Z,0.00
2022-09-23T01:34:29.864Z,0.00
2022-09-23T01:35:29.853Z,0.00
2022-09-23T01:36:29.822Z,0.00
2022-09-23T01:37:29.812Z,0.00
2022-09-23T01:38:29.803Z,0.00
2022-09-23T01:39:29.802Z,0.00
2022-09-23T01:40:29.844Z,0.00
2022-09-23T01:41:29.762Z,0.00
2022-09-23T01:42:29.752Z,0.00
2022-09-23T01:43:29.734Z,0.00
2022-09-23T01:44:29.730Z,0.00
2022-09-23T01:45:29.715Z,0.00
2022-09-23T01:46:29.732Z,0.00
2022-09-23T01:47:29.701Z,0.00
2022-09-23T01:48:29.740Z,0.00
2022-09-23T01:49:29.652Z,0.00
2022-09-23T01:50:29.650Z,0.00
2022-09-23T01:51:29.650Z,0.00
2022-09-23T01:52:29.630Z,0.00
2022-09-23T01:53:29.612Z,0.00
2022-09-23T01:54:29.608Z,0.00
2022-09-23T01:55:29.579Z,0.00
2022-09-23T01:56:29.582Z,0.00
2022-09-23T01:57:29.555Z,0.00
2022-09-23T01:58:29.549Z,0.00
2022-09-23T01:59:29.532Z,0.00
2022-09-23T02:00:29.518Z,0.00
2022-09-23T02:01:29.566Z,0.00
2022-09-23T02:02:29.571Z,0.00
2022-09-23T02:03:29.479Z,0.00
2022-09-23T02:04:29.469Z,0.00
2022-09-23T02:05:29.448Z,0.00
2022-09-23T02:06:29.468Z,0.00
2022-09-23T02:07:29.429Z,0.00
2022-09-23T02:08:29.419Z,0.00
2022-09-23T02:09:29.397Z,0.00
2022-09-23T02:10:29.399Z,0.00
2022-09-23T02:11:29.376Z,0.00
2022-09-23T02:12:29.377Z,0.00
2022-09-23T02:13:29.348Z,0.00
2022-09-23T02:14:29.336Z,0.00
2022-09-23T02:15:29.326Z,0.00
2022-09-23T02:16:29.371Z,0.00
2022-09-23T02:17:29.306Z,0.00
2022-09-23T02:18:29.298Z,0.00
2022-09-23T02:19:29.272Z,0.00
2022-09-23T02:20:29.255Z,0.00
2022-09-23T02:21:29.245Z,0.00
2022-09-23T02:22:29.244Z,0.00
2022-09-23T02:23:29.240Z,0.00
2022-09-23T02:24:29.205Z,0.00
2022-09-23T02:25:29.195Z,0.00
2022-09-23T02:26:29.176Z,0.00
2022-09-23T02:27:29.184Z,0.00
2022-09-23T02:28:29.153Z,0.00
2022-09-23T02:29:29.154Z,0.00
2022-09-23T02:30:29.122Z,0.00
2022-09-23T02:31:29.137Z,0.00
2022-09-23T02:32:29.112Z,0.00
2022-09-23T02:33:29.083Z,0.00
2022-09-23T02:34:29.073Z,0.00
2022-09-23T02:35:29.062Z,0.00
2022-09-23T02:36:29.053Z,0.00
2022-09-23T02:37:29.058Z,0.00
2022-09-23T02:38:29.022Z,0.00
2022-09-23T02:39:29.011Z,0.00
2022-09-23T02:40:29.104Z,0.00
2022-09-23T02:41:28.991Z,0.00
2022-09-23T02:42:28.979Z,0.00
2022-09-23T02:43:28.949Z,0.00
2022-09-23T02:44:28.960Z,0.00
2022-09-23T02:45:29.018Z,0.00
2022-09-23T02:46:28.921Z,0.00
2022-09-23T02:47:28.924Z,0.00
2022-09-23T02:48:28.901Z,0.00
2022-09-23T02:49:28.879Z,0.00
2022-09-23T02:50:28.869Z,0.00
2022-09-23T02:51:28.895Z,0.00
2022-09-23T02:52:28.849Z,0.00
2022-09-23T02:53:28.840Z,0.00
2022-09-23T02:54:28.819Z,0.00
2022-09-23T02:55:28.798Z,0.00
2022-09-23T02:56:28.790Z,0.00
2022-09-23T02:57:28.778Z,0.00
2022-09-23T02:58:28.788Z,0.00
2022-09-23T02:59:28.749Z,0.00
2022-09-23T03:00:28.747Z,0.00
2022-09-23T03:01:28.811Z,0.00
2022-09-23T03:02:28.797Z,0.00
2022-09-23T03:03:28.717Z,0.00
2022-09-23T03:04:28.710Z,0.00
2022-09-23T03:05:28.675Z,0.00
2022-09-23T03:06:28.664Z,0.00
2022-09-23T03:07:28.648Z,0.00
2022-09-23T03:08:28.646Z,0.00
2022-09-23T03:09:28.615Z,0.00
2022-09-23T03:10:28.618Z,0.00
2022-09-23T03:11:28.658Z,0.00
2022-09-23T03:12:28.594Z,0.00
2022-09-23T03:13:29.507Z,0.00
2022-09-23T03:14:28.565Z,0.00
2022-09-23T03:15:28.554Z,0.00
2022-09-23T03:16:28.593Z,0.00
2022-09-23T03:17:28.514Z,0.00
2022-09-23T03:18:28.533Z,0.00
2022-09-23T03:19:28.504Z,0.00
2022-09-23T03:20:28.483Z,0.00
2022-09-23T03:21:28.473Z,0.00
2022-09-23T03:22:28.453Z,0.00
2022-09-23T03:23:28.452Z,0.00
2022-09-23T03:24:28.442Z,0.00
2022-09-23T03:25:28.423Z,0.00
2022-09-23T03:26:28.419Z,0.00
2022-09-23T03:27:28.392Z,0.00
2022-09-23T03:28:28.379Z,0.00
2022-09-23T03:29:28.381Z,0.00
2022-09-23T03:30:28.361Z,0.00
2022-09-23T03:31:28.363Z,0.00
2022-09-23T03:32:28.322Z,0.00
2022-09-23T03:33:28.975Z,0.00
2022-09-23T03:34:28.323Z,0.00
2022-09-23T03:35:28.300Z,0.00
2022-09-23T03:36:28.269Z,0.00
2022-09-23T03:37:28.270Z,0.00
2022-09-23T03:38:28.250Z,0.00
2022-09-23T03:39:28.251Z,0.00
2022-09-23T03:40:28.295Z,0.00
2022-09-23T03:41:28.209Z,0.00
2022-09-23T03:42:28.198Z,0.00
2022-09-23T03:43:28.190Z,0.00
2022-09-23T03:44:28.218Z,0.00
2022-09-23T03:45:28.205Z,0.00
2022-09-23T03:46:28.139Z,0.00
2022-09-23T03:47:28.140Z,0.00
2022-09-23T03:48:28.119Z,0.00
2022-09-23T03:49:28.119Z,0.00
2022-09-23T03:50:28.087Z,0.00
2022-09-23T03:51:28.078Z,0.00
2022-09-23T03:52:28.069Z,0.00
2022-09-23T03:53:28.057Z,0.00
2022-09-23T03:54:28.057Z,0.00
2022-09-23T03:55:28.035Z,0.00
2022-09-23T03:56:28.018Z,0.00
2022-09-23T03:57:28.006Z,0.00
2022-09-23T03:58:27.989Z,0.00
2022-09-23T03:59:27.989Z,0.00
2022-09-23T04:00:27.962Z,0.00
2022-09-23T04:01:28.017Z,0.00
2022-09-23T04:02:27.971Z,0.00
2022-09-23T04:03:27.925Z,0.00
2022-09-23T04:04:27.935Z,0.00
2022-09-23T04:05:27.906Z,0.00
2022-09-23T04:06:27.885Z,0.00
2022-09-23T04:07:27.874Z,0.00
2022-09-23T04:08:27.854Z,0.00
2022-09-23T04:09:27.845Z,0.00
2022-09-23T04:10:27.974Z,0.00
2022-09-23T04:11:27.824Z,0.00
2022-09-23T04:12:27.804Z,0.00
2022-09-23T04:13:27.818Z,0.00
2022-09-23T04:14:27.793Z,0.00
2022-09-23T04:15:27.783Z,0.00
2022-09-23T04:16:27.984Z,0.00
2022-09-23T04:17:27.743Z,0.00
2022-09-23T04:18:27.734Z,0.00
2022-09-23T04:19:27.722Z,0.00
2022-09-23T04:20:27.721Z,0.00
2022-09-23T04:21:27.702Z,0.00
2022-09-23T04:22:27.682Z,0.00
2022-09-23T04:23:27.673Z,0.00
2022-09-23T04:24:27.651Z,0.00
2022-09-23T04:25:27.650Z,0.00
2022-09-23T04:26:27.641Z,0.00
2022-09-23T04:27:27.618Z,0.00
2022-09-23T04:28:27.610Z,0.00
2022-09-23T04:29:27.592Z,0.00
2022-09-23T04:30:27.587Z,0.00
2022-09-23T04:31:27.620Z,0.00
2022-09-23T04:32:27.548Z,0.00
2022-09-23T04:33:27.539Z,0.00
2022-09-23T04:34:27.520Z,0.00
2022-09-23T04:35:27.511Z,0.00
2022-09-23T04:36:27.519Z,0.00
2022-09-23T04:37:27.499Z,0.00
2022-09-23T04:38:27.470Z,0.00
2022-09-23T04:39:27.459Z,0.00
2022-09-23T04:40:27.521Z,0.00
2022-09-23T04:41:27.438Z,0.00
2022-09-23T04:42:27.429Z,0.00
2022-09-23T04:43:27.417Z,0.00
2022-09-23T04:44:27.398Z,0.00
2022-09-23T04:45:27.389Z,0.00
2022-09-23T04:46:27.425Z,0.00
2022-09-23T04:47:27.368Z,0.00
2022-09-23T04:48:27.338Z,0.00
2022-09-23T04:49:27.327Z,0.00
2022-09-23T04:50:27.324Z,0.00
2022-09-23T04:51:28.131Z,0.00
2022-09-23T04:52:27.312Z,0.00
2022-09-23T04:53:27.288Z,0.00
2022-09-23T04:54:27.266Z,0.00
2022-09-23T04:55:27.255Z,0.00
2022-09-23T04:56:27.238Z,0.00
2022-09-23T04:57:27.257Z,0.00
2022-09-23T04:58:27.217Z,0.00
2022-09-23T04:59:27.195Z,0.00
2022-09-23T05:00:27.187Z,0.00
2022-09-23T05:01:27.350Z,0.00
2022-09-23T05:02:27.240Z,0.00
2022-09-23T05:03:27.164Z,0.00
2022-09-23T05:04:27.145Z,0.00
2022-09-23T05:05:27.125Z,0.00
2022-09-23T05:06:27.130Z,0.00
2022-09-23T05:07:27.093Z,0.00
2022-09-23T05:08:27.093Z,0.00
2022-09-23T05:09:27.079Z,0.00
2022-09-23T05:10:27.066Z,0.00
2022-09-23T05:11:27.052Z,0.00
2022-09-23T05:12:27.045Z,0.00
2022-09-23T05:13:27.043Z,0.00
2022-09-23T05:14:27.003Z,0.00
2022-09-23T05:15:27.001Z,0.00
2022-09-23T05:16:27.026Z,0.00
2022-09-23T05:17:26.972Z,0.00
2022-09-23T05:18:26.951Z,0.00
2022-09-23T05:19:26.970Z,0.00
2022-09-23T05:20:26.922Z,0.00
2022-09-23T05:21:26.926Z,0.00
2022-09-23T05:22:26.900Z,0.00
2022-09-23T05:23:26.901Z,0.00
2022-09-23T05:24:26.892Z,0.00
2022-09-23T05:25:26.862Z,0.00
2022-09-23T05:26:26.850Z,0.00
2022-09-23T05:27:26.840Z,0.00
2022-09-23T05:28:26.820Z,0.00
2022-09-23T05:29:26.890Z,0.00
2022-09-23T05:30:26.808Z,0.00
2022-09-23T05:31:26.894Z,0.00
2022-09-23T05:32:26.770Z,0.00
2022-09-23T05:33:26.760Z,0.00
2022-09-23T05:34:26.780Z,0.00
2022-09-23T05:35:26.728Z,0.00
2022-09-23T05:36:26.727Z,0.00
2022-09-23T05:37:26.718Z,0.00
2022-09-23T05:38:26.699Z,0.00
2022-09-23T05:39:26.697Z,0.00
2022-09-23T05:40:26.743Z,0.00
2022-09-23T05:41:26.667Z,0.00
2022-09-23T05:42:26.638Z,0.00
2022-09-23T05:43:26.629Z,0.00
2022-09-23T05:44:26.656Z,0.00
2022-09-23T05:45:27.035Z,0.00
2022-09-23T05:46:26.617Z,0.00
2022-09-23T05:47:26.588Z,0.00
2022-09-23T05:48:26.568Z,5.62
2022-09-23T05:49:42.647Z,5.62
2022-09-23T05:50:27.586Z,5.62
2022-09-23T05:51:30.728Z,5.62
2022-09-23T05:52:26.520Z,5.62
2022-09-23T05:53:26.516Z,5.62
2022-09-23T05:54:26.692Z,5.62
2022-09-23T05:55:26.476Z,5.62
2022-09-23T05:56:26.499Z,5.62
2022-09-23T05:57:26.486Z,5.62
2022-09-23T05:58:26.444Z,5.62
2022-09-23T05:59:26.441Z,5.62
2022-09-23T06:00:26.411Z,5.62
2022-09-23T06:01:26.463Z,5.62
2022-09-23T06:02:26.403Z,5.62
2022-09-23T06:03:26.452Z,5.62
2022-09-23T06:04:26.366Z,5.62
2022-09-23T06:05:26.355Z,5.62
2022-09-23T06:06:26.335Z,5.62
2022-09-23T06:07:26.333Z,5.62
2022-09-23T06:08:26.310Z,5.62
2022-09-23T06:09:26.302Z,5.62
2022-09-23T06:10:26.286Z,5.62
2022-09-23T06:11:26.283Z,5.62
2022-09-23T06:12:26.283Z,5.62
2022-09-23T06:13:26.242Z,5.62
2022-09-23T06:14:26.231Z,5.62
2022-09-23T06:15:26.241Z,5.62
2022-09-23T06:16:26.262Z,5.62
2022-09-23T06:17:26.181Z,5.62
2022-09-23T06:18:26.212Z,5.62
2022-09-23T06:19:26.161Z,5.62
2022-09-23T06:20:26.152Z,5.62
2022-09-23T06:21:26.146Z,5.62
2022-09-23T06:22:26.130Z,5.62
2022-09-23T06:23:26.760Z,5.62
2022-09-23T06:24:31.098Z,11.25
2022-09-23T06:25:27.104Z,11.25
2022-09-23T06:26:26.079Z,11.25
2022-09-23T06:27:26.080Z,11.25
2022-09-23T06:28:26.058Z,11.25
2022-09-23T06:29:26.049Z,11.25
2022-09-23T06:30:26.020Z,11.25
2022-09-23T06:31:26.068Z,11.25
2022-09-23T06:32:25.999Z,11.25
2022-09-23T06:33:34.441Z,11.25
2022-09-23T06:34:26.989Z,11.25
2022-09-23T06:35:27.735Z,11.25
2022-09-23T06:36:41.293Z,11.25
2022-09-23T06:37:26.938Z,11.25
2022-09-23T06:38:25.916Z,11.25
2022-09-23T06:39:25.916Z,16.88
2022-09-23T06:40:25.927Z,16.88
2022-09-23T06:41:25.888Z,16.88
2022-09-23T06:42:25.875Z,16.88
2022-09-23T06:43:25.859Z,16.88
2022-09-23T06:44:25.857Z,16.88
2022-09-23T06:45:25.836Z,16.88
2022-09-23T06:46:25.878Z,22.50
2022-09-23T06:47:25.805Z,22.50
2022-09-23T06:48:25.794Z,22.50
2022-09-23T06:49:25.804Z,22.50
2022-09-23T06:50:25.826Z,22.50
2022-09-23T06:51:25.745Z,22.50
2022-09-23T06:52:25.735Z,22.50
2022-09-23T06:53:25.743Z,22.50
2022-09-23T06:54:25.712Z,28.12
2022-09-23T06:55:25.725Z,28.12
2022-09-23T06:56:25.683Z,28.12
2022-09-23T06:57:25.675Z,28.12
2022-09-23T06:58:25.653Z,28.12
2022-09-23T06:59:25.664Z,33.75
2022-09-23T07:00:25.656Z,33.75
2022-09-23T07:01:25.652Z,33.75
2022-09-23T07:02:25.666Z,39.38
2022-09-23T07:03:25.593Z,39.38
2022-09-23T07:04:29.224Z,39.38
2022-09-23T07:05:25.601Z,39.38
2022-09-23T07:06:25.554Z,39.38
2022-09-23T07:07:25.556Z,39.38
2022-09-23T07:08:25.532Z,39.38
2022-09-23T07:09:25.520Z,39.38
2022-09-23T07:10:25.516Z,39.38
2022-09-23T07:11:25.508Z,39.38
2022-09-23T07:12:25.481Z,45.00
2022-09-23T07:13:25.472Z,45.00
2022-09-23T07:14:25.451Z,39.38
2022-09-23T07:15:25.459Z,45.00
2022-09-23T07:16:25.449Z,39.38
2022-09-23T07:17:25.420Z,39.38
2022-09-23T07:18:25.404Z,45.00
2022-09-23T07:19:25.390Z,45.00
2022-09-23T07:20:25.389Z,45.00
2022-09-23T07:21:25.360Z,45.00
2022-09-23T07:22:25.349Z,45.00
2022-09-23T07:23:25.338Z,45.00
2022-09-23T07:24:25.328Z,39.38
2022-09-23T07:25:25.327Z,45.00
2022-09-23T07:26:25.291Z,45.00
2022-09-23T07:27:25.290Z,45.00
2022-09-23T07:28:25.268Z,39.38
2022-09-23T07:29:25.258Z,39.38
2022-09-23T07:30:25.677Z,45.00
2022-09-23T07:31:36.930Z,45.00
2022-09-23T07:32:26.494Z,45.00
2022-09-23T07:33:32.133Z,45.00
2022-09-23T07:34:26.197Z,45.00
2022-09-23T07:35:25.195Z,45.00
2022-09-23T07:36:25.167Z,39.38
2022-09-23T07:37:25.159Z,45.00
2022-09-23T07:38:25.136Z,45.00
2022-09-23T07:39:25.126Z,50.62
2022-09-23T07:40:25.188Z,45.00
2022-09-23T07:41:25.106Z,45.00
2022-09-23T07:42:25.088Z,50.62
2022-09-23T07:43:25.076Z,50.62
2022-09-23T07:44:25.066Z,50.62
2022-09-23T07:45:25.066Z,50.62
2022-09-23T07:46:25.088Z,50.62
2022-09-23T07:47:25.034Z,50.62
2022-09-23T07:48:25.016Z,50.62
2022-09-23T07:49:25.005Z,50.62
2022-09-23T07:50:24.995Z,50.62
2022-09-23T07:51:24.965Z,50.62
2022-09-23T07:52:24.963Z,50.62
2022-09-23T07:53:24.955Z,50.62
2022-09-23T07:54:24.965Z,50.62
2022-09-23T07:55:24.935Z,50.62
2022-09-23T07:56:24.914Z,50.62
2022-09-23T07:57:24.897Z,50.62
2022-09-23T07:58:24.883Z,50.62
2022-09-23T07:59:24.883Z,50.62
2022-09-23T08:00:24.863Z,50.62
2022-09-23T08:01:24.901Z,56.25
2022-09-23T08:02:24.878Z,50.62
2022-09-23T08:03:24.813Z,50.62
2022-09-23T08:04:24.812Z,56.25
2022-09-23T08:05:24.813Z,56.25
2022-09-23T08:06:24.775Z,50.62
2022-09-23T08:07:24.763Z,56.25
2022-09-23T08:08:24.753Z,56.25
2022-09-23T08:09:24.743Z,56.25
2022-09-23T08:10:24.754Z,56.25
2022-09-23T08:11:24.713Z,50.62
2022-09-23T08:12:24.711Z,50.62
2022-09-23T08:13:24.692Z,50.62
2022-09-23T08:14:24.680Z,50.62
2022-09-23T08:15:24.683Z,50.62
2022-09-23T08:16:24.760Z,50.62
2022-09-23T08:17:24.650Z,45.00
2022-09-23T08:18:24.631Z,50.62
2022-09-23T08:19:24.621Z,50.62
2022-09-23T08:20:24.610Z,50.62
2022-09-23T08:21:24.598Z,50.62
2022-09-23T08:22:24.580Z,50.62
2022-09-23T08:23:24.608Z,50.62
2022-09-23T08:24:24.551Z,50.62
2022-09-23T08:25:24.561Z,50.62
2022-09-23T08:26:24.541Z,50.62
2022-09-23T08:27:24.532Z,50.62
2022-09-23T08:28:24.499Z,50.62
2022-09-23T08:29:24.510Z,50.62
2022-09-23T08:30:24.488Z,50.62
2022-09-23T08:31:24.513Z,50.62
2022-09-23T08:32:24.459Z,50.62
2022-09-23T08:33:24.457Z,50.62
2022-09-23T08:34:24.429Z,50.62
2022-09-23T08:35:24.428Z,45.00
2022-09-23T08:36:24.397Z,45.00
2022-09-23T08:37:24.387Z,45.00
2022-09-23T08:38:24.375Z,45.00
2022-09-23T08:39:24.378Z,45.00
2022-09-23T08:40:24.411Z,45.00
2022-09-23T08:41:24.340Z,45.00
2022-09-23T08:42:24.318Z,45.00
2022-09-23T08:43:24.319Z,45.00
2022-09-23T08:44:24.297Z,45.00
2022-09-23T08:45:24.301Z,45.00
2022-09-23T08:46:24.278Z,45.00
2022-09-23T08:47:24.257Z,45.00
2022-09-23T08:48:24.246Z,50.62
2022-09-23T08:49:24.251Z,50.62
2022-09-23T08:50:24.235Z,50.62
2022-09-23T08:51:24.207Z,50.62
2022-09-23T08:52:24.196Z,56.25
2022-09-23T08:53:24.178Z,56.25
2022-09-23T08:54:24.165Z,56.25
2022-09-23T08:55:24.168Z,56.25
2022-09-23T08:56:24.134Z,56.25
2022-09-23T08:57:24.136Z,56.25
2022-09-23T08:58:25.721Z,56.25
2022-09-23T08:59:24.096Z,50.62
2022-09-23T09:00:24.097Z,56.25
2022-09-23T09:01:24.113Z,56.25
2022-09-23T09:02:24.131Z,56.25
2022-09-23T09:03:24.044Z,50.62
2022-09-23T09:04:24.028Z,50.62
2022-09-23T09:05:24.035Z,56.25
2022-09-23T09:06:24.004Z,56.25
2022-09-23T09:07:36.262Z,56.25
2022-09-23T09:08:24.973Z,56.25
2022-09-23T09:09:23.965Z,56.25
2022-09-23T09:10:23.966Z,56.25
2022-09-23T09:11:23.938Z,56.25
2022-09-23T09:12:23.924Z,56.25
2022-09-23T09:13:23.915Z,56.25
2022-09-23T09:14:23.893Z,56.25
2022-09-23T09:15:25.145Z,56.25
2022-09-23T09:16:41.823Z,56.25
2022-09-23T09:17:24.856Z,56.25
2022-09-23T09:18:23.850Z,56.25
2022-09-23T09:19:23.824Z,56.25
2022-09-23T09:20:23.831Z,56.25
2022-09-23T09:21:23.802Z,56.25
2022-09-23T09:22:23.838Z,56.25
2022-09-23T09:23:23.777Z,56.25
2022-09-23T09:24:23.771Z,56.25
2022-09-23T09:25:23.762Z,56.25
2022-09-23T09:26:23.734Z,56.25
2022-09-23T09:27:23.722Z,56.25
2022-09-23T09:28:23.718Z,56.25
2022-09-23T09:29:34.768Z,56.25
2022-09-23T09:30:24.703Z,56.25
2022-09-23T09:31:23.715Z,56.25
2022-09-23T09:32:23.664Z,56.25
2022-09-23T09:33:23.654Z,50.62
2022-09-23T09:34:23.650Z,50.62
2022-09-23T09:35:23.622Z,50.62
2022-09-23T09:36:23.600Z,50.62
2022-09-23T09:37:23.581Z,56.25
2022-09-23T09:38:23.579Z,56.25
2022-09-23T09:39:26.219Z,56.25
2022-09-23T09:40:23.575Z,56.25
2022-09-23T09:41:23.541Z,56.25
2022-09-23T09:42:23.531Z,56.25
2022-09-23T09:43:23.671Z,56.25
2022-09-23T09:44:23.498Z,56.25
2022-09-23T09:45:23.490Z,56.25
2022-09-23T09:46:23.526Z,56.25
2022-09-23T09:47:23.479Z,56.25
2022-09-23T09:48:23.443Z,61.88
2022-09-23T09:49:23.436Z,61.88
2022-09-23T09:50:23.435Z,67.50
2022-09-23T09:51:23.409Z,67.50
2022-09-23T09:52:23.389Z,67.50
2022-09-23T09:53:23.326Z,67.50
2022-09-23T09:54:23.317Z,73.12
2022-09-23T09:55:23.305Z,78.75
2022-09-23T09:56:23.294Z,90.00
2022-09-23T09:57:23.274Z,95.62
2022-09-23T09:58:23.254Z,95.62
2022-09-23T09:59:23.251Z,101.25
2022-09-23T10:00:23.242Z,90.00
2022-09-23T10:01:23.329Z,84.38
2022-09-23T10:02:23.221Z,112.50
2022-09-23T10:03:23.200Z,112.50
2022-09-23T10:04:23.247Z,101.25
2022-09-23T10:05:23.181Z,84.38
2022-09-23T10:06:23.238Z,78.75
2022-09-23T10:07:23.239Z,78.75
2022-09-23T10:08:23.223Z,78.75
2022-09-23T10:09:23.198Z,73.12
2022-09-23T10:10:32.277Z,73.12
2022-09-23T10:11:24.087Z,67.50
2022-09-23T10:12:23.077Z,73.12
2022-09-23T10:13:23.067Z,78.75
2022-09-23T10:14:23.057Z,78.75
2022-09-23T10:15:23.057Z,84.38
2022-09-23T10:16:23.077Z,73.12
2022-09-23T10:17:23.013Z,61.88
2022-09-23T10:18:23.005Z,61.88
2022-09-23T10:19:22.985Z,67.50
2022-09-23T10:20:22.985Z,67.50
2022-09-23T10:21:27.558Z,61.88
2022-09-23T10:22:23.959Z,67.50
2022-09-23T10:23:22.925Z,67.50
2022-09-23T10:24:22.938Z,67.50
2022-09-23T10:25:22.916Z,67.50
2022-09-23T10:26:22.904Z,73.12
2022-09-23T10:27:22.885Z,73.12
2022-09-23T10:28:22.865Z,78.75
2022-09-23T10:29:22.855Z,84.38
2022-09-23T10:30:22.860Z,90.00
2022-09-23T10:31:22.835Z,95.62
2022-09-23T10:32:22.815Z,90.00
2022-09-23T10:33:22.805Z,95.62
2022-09-23T10:34:22.795Z,95.62
2022-09-23T10:35:22.796Z,95.62
2022-09-23T10:36:22.770Z,101.25
2022-09-23T10:37:22.757Z,101.25
2022-09-23T10:38:22.746Z,95.62
2022-09-23T10:39:22.745Z,95.62
2022-09-23T10:40:22.810Z,101.25
2022-09-23T10:41:22.710Z,101.25
2022-09-23T10:42:22.689Z,106.88
2022-09-23T10:43:22.678Z,101.25
2022-09-23T10:44:22.680Z,101.25
2022-09-23T10:45:22.677Z,101.25
2022-09-23T10:46:22.735Z,95.62
2022-09-23T10:47:22.642Z,78.75
2022-09-23T10:48:22.622Z,84.38
2022-09-23T10:49:22.604Z,84.38
2022-09-23T10:50:22.622Z,73.12
2022-09-23T10:51:26.198Z,73.12
2022-09-23T10:52:22.573Z,67.50
2022-09-23T10:53:22.562Z,67.50
2022-09-23T10:54:22.550Z,67.50
2022-09-23T10:55:22.553Z,67.50
2022-09-23T10:56:22.526Z,67.50
2022-09-23T10:57:22.515Z,67.50
2022-09-23T10:58:22.494Z,67.50
2022-09-23T10:59:22.486Z,73.12
2022-09-23T11:00:22.489Z,73.12
2022-09-23T11:01:22.520Z,67.50
2022-09-23T11:02:22.444Z,73.12
2022-09-23T11:03:22.434Z,73.12
2022-09-23T11:04:22.530Z,78.75
2022-09-23T11:05:22.430Z,78.75
2022-09-23T11:06:22.422Z,73.12
2022-09-23T11:07:22.398Z,73.12
2022-09-23T11:08:22.375Z,73.12
2022-09-23T11:09:22.365Z,73.12
2022-09-23T11:10:42.297Z,67.50
2022-09-23T11:11:23.328Z,67.50
2022-09-23T11:12:22.318Z,67.50
2022-09-23T11:13:22.310Z,73.12
2022-09-23T11:14:22.310Z,78.75
2022-09-23T11:15:22.349Z,90.00
2022-09-23T11:16:22.309Z,90.00
2022-09-23T11:17:22.266Z,95.62
2022-09-23T11:18:22.243Z,95.62
2022-09-23T11:19:22.252Z,95.62
2022-09-23T11:20:22.232Z,95.62
2022-09-23T11:21:22.212Z,101.25
2022-09-23T11:22:22.193Z,101.25
2022-09-23T11:23:22.202Z,101.25
2022-09-23T11:24:22.164Z,101.25
2022-09-23T11:25:22.175Z,101.25
2022-09-23T11:26:22.140Z,101.25
2022-09-23T11:27:22.124Z,101.25
2022-09-23T11:28:22.123Z,106.88
2022-09-23T11:29:22.113Z,106.88
2022-09-23T11:30:22.251Z,101.25
2022-09-23T11:31:22.171Z,106.88
2022-09-23T11:32:22.064Z,101.25
2022-09-23T11:33:22.064Z,101.25
2022-09-23T11:34:22.045Z,101.25
2022-09-23T11:35:22.045Z,101.25
2022-09-23T11:36:22.014Z,101.25
2022-09-23T11:37:22.005Z,112.50
2022-09-23T11:38:21.994Z,106.88
2022-09-23T11:39:21.976Z,106.88
2022-09-23T11:40:22.050Z,106.88
2022-09-23T11:41:21.964Z,112.50
2022-09-23T11:42:21.937Z,106.88
2022-09-23T11:43:21.926Z,106.88
2022-09-23T11:44:21.915Z,101.25
2022-09-23T11:45:21.925Z,101.25
2022-09-23T11:46:21.947Z,95.62
2022-09-23T11:47:21.887Z,106.88
2022-09-23T11:48:21.877Z,112.50
2022-09-23T11:49:21.858Z,112.50
2022-09-23T11:50:21.847Z,112.50
2022-09-23T11:51:21.833Z,112.50
2022-09-23T11:52:21.809Z,118.12
2022-09-23T11:53:21.797Z,123.75
2022-09-23T11:54:21.788Z,118.12
2022-09-23T11:55:23.219Z,118.12
2022-09-23T11:56:32.901Z,123.75
2022-09-23T11:57:22.780Z,129.38
2022-09-23T11:58:25.960Z,123.75
2022-09-23T11:59:30.555Z,123.75
2022-09-23T12:00:22.733Z,112.50
2022-09-23T12:01:30.647Z,101.25
2022-09-23T12:02:25.836Z,78.75
2022-09-23T12:03:27.073Z,84.38
2022-09-23T12:04:23.196Z,78.75
2022-09-23T12:05:21.863Z,56.25
2022-09-23T12:06:21.628Z,61.88
2022-09-23T12:07:21.620Z,56.25
2022-09-23T12:08:21.611Z,56.25
2022-09-23T12:09:35.765Z,56.25
2022-09-23T12:10:22.597Z,56.25
2022-09-23T12:11:21.579Z,56.25
2022-09-23T12:12:26.272Z,61.88
2022-09-23T12:13:22.551Z,61.88
2022-09-23T12:14:21.561Z,56.25
2022-09-23T12:15:21.530Z,61.88
2022-09-23T12:16:21.568Z,67.50
2022-09-23T12:17:21.491Z,67.50
2022-09-23T12:18:23.274Z,73.12
2022-09-23T12:19:21.470Z,67.50
2022-09-23T12:20:21.471Z,95.62
2022-09-23T12:21:45.879Z,84.38
2022-09-23T12:22:22.442Z,73.12
2022-09-23T12:23:21.420Z,78.75
2022-09-23T12:24:21.421Z,90.00
2022-09-23T12:25:21.411Z,84.38
2022-09-23T12:26:21.391Z,84.38
2022-09-23T12:27:21.370Z,73.12
2022-09-23T12:28:21.360Z,73.12
2022-09-23T12:29:21.353Z,90.00
2022-09-23T12:30:21.371Z,78.75
2022-09-23T12:31:21.343Z,73.12
2022-09-23T12:32:21.302Z,73.12
2022-09-23T12:33:21.292Z,73.12
2022-09-23T12:34:21.281Z,73.12
2022-09-23T12:35:21.264Z,73.12
2022-09-23T12:36:21.262Z,73.12
2022-09-23T12:37:21.233Z,73.12
2022-09-23T12:38:21.233Z,67.50
2022-09-23T12:39:21.213Z,67.50
2022-09-23T12:40:21.250Z,67.50
2022-09-23T12:41:21.202Z,67.50
2022-09-23T12:42:21.183Z,61.88
2022-09-23T12:43:21.163Z,61.88
2022-09-23T12:44:21.161Z,56.25
2022-09-23T12:45:21.133Z,56.25
2022-09-23T12:46:21.217Z,56.25
2022-09-23T12:47:21.170Z,56.25
2022-09-23T12:48:21.106Z,56.25
2022-09-23T12:49:21.096Z,56.25
2022-09-23T12:50:23.839Z,56.25
2022-09-23T12:51:21.084Z,56.25
2022-09-23T12:52:21.043Z,56.25
2022-09-23T12:53:21.034Z,50.62
2022-09-23T12:54:21.039Z,50.62
2022-09-23T12:55:21.003Z,50.62
2022-09-23T12:56:21.012Z,50.62
2022-09-23T12:57:20.983Z,45.00
2022-09-23T12:58:20.974Z,45.00
2022-09-23T12:59:20.954Z,45.00
2022-09-23T13:00:20.952Z,45.00
2022-09-23T13:01:21.121Z,45.00
2022-09-23T13:02:21.001Z,45.00
2022-09-23T13:03:20.904Z,45.00
2022-09-23T13:04:20.933Z,45.00
2022-09-23T13:05:20.885Z,45.00
2022-09-23T13:06:20.883Z,45.00
2022-09-23T13:07:20.871Z,45.00
2022-09-23T13:08:20.853Z,39.38
2022-09-23T13:09:20.824Z,39.38